sensor_id;sensor_type;location;lat;lon;timestamp;P1;durP1;ratioP1;P2;durP2;ratioP2
55833;SDS011;41761;43.004;-0.066;2022-08-14T00:00:28;8.30;;;7.25;;
55833;SDS011;41761;43.004;-0.066;2022-08-14T00:02:54;10.43;;;7.70;;
55833;SDS011;41761;43.004;-0.066;2022-08-14T00:05:21;10.48;;;7.97;;
55833;SDS011;41761;43.004;-0.066;2022-08-14T00:07:47;8.20;;;7.40;;
55833;SDS011;41761;43.004;-0.066;2022-08-14T00:10:14;9.82;;;7.90;;
55833;SDS011;41761;43.004;-0.066;2022-08-14T00:12:43;7.63;;;6.90;;
55833;SDS011;41761;43.004;-0.066;2022-08-14T00:15:15;9.55;;;8.65;;
55833;SDS011;41761;43.004;-0.066;2022-08-14T00:17:43;9.60;;;8.18;;
55833;SDS011;41761;43.004;-0.066;2022-08-14T00:20:09;8.20;;;7.47;;
55833;SDS011;41761;43.004;-0.066;2022-08-14T00:22:36;8.68;;;7.85;;
55833;SDS011;41761;43.004;-0.066;2022-08-14T00:25:03;9.52;;;8.18;;
55833;SDS011;41761;43.004;-0.066;2022-08-14T00:27:29;8.52;;;7.45;;
55833;SDS011;41761;43.004;-0.066;2022-08-14T00:29:55;8.85;;;7.93;;
55833;SDS011;41761;43.004;-0.066;2022-08-14T00:32:21;9.65;;;8.48;;
55833;SDS011;41761;43.004;-0.066;2022-08-14T00:34:47;9.38;;;8.48;;
55833;SDS011;41761;43.004;-0.066;2022-08-14T00:37:14;7.80;;;7.10;;
55833;SDS011;41761;43.004;-0.066;2022-08-14T00:39:40;10.55;;;8.50;;
55833;SDS011;41761;43.004;-0.066;2022-08-14T00:42:06;9.57;;;8.65;;
55833;SDS011;41761;43.004;-0.066;2022-08-14T00:44:32;11.70;;;8.50;;
55833;SDS011;41761;43.004;-0.066;2022-08-14T00:46:59;12.82;;;8.45;;
55833;SDS011;41761;43.004;-0.066;2022-08-14T00:49:26;10.38;;;8.68;;
55833;SDS011;41761;43.004;-0.066;2022-08-14T00:51:52;8.50;;;7.55;;
55833;SDS011;41761;43.004;-0.066;2022-08-14T00:54:18;10.88;;;8.93;;
55833;SDS011;41761;43.004;-0.066;2022-08-14T00:56:45;9.27;;;8.35;;
55833;SDS011;41761;43.004;-0.066;2022-08-14T00:59:11;8.90;;;8.00;;
55833;SDS011;41761;43.004;-0.066;2022-08-14T01:01:37;9.50;;;8.50;;
55833;SDS011;41761;43.004;-0.066;2022-08-14T01:04:03;10.90;;;8.65;;
55833;SDS011;41761;43.004;-0.066;2022-08-14T01:06:30;9.50;;;8.50;;
55833;SDS011;41761;43.004;-0.066;2022-08-14T01:08:57;8.48;;;7.68;;
55833;SDS011;41761;43.004;-0.066;2022-08-14T01:11:23;9.68;;;8.02;;
55833;SDS011;41761;43.004;-0.066;2022-08-14T01:13:49;8.57;;;7.72;;
55833;SDS011;41761;43.004;-0.066;2022-08-14T01:16:16;8.63;;;7.82;;
55833;SDS011;41761;43.004;-0.066;2022-08-14T01:18:44;8.57;;;7.75;;
55833;SDS011;41761;43.004;-0.066;2022-08-14T01:21:33;8.88;;;7.97;;
55833;SDS011;41761;43.004;-0.066;2022-08-14T01:24:01;8.48;;;7.53;;
55833;SDS011;41761;43.004;-0.066;2022-08-14T01:26:27;10.40;;;8.55;;
55833;SDS011;41761;43.004;-0.066;2022-08-14T01:28:55;9.10;;;8.02;;
55833;SDS011;41761;43.004;-0.066;2022-08-14T01:31:31;8.75;;;7.85;;
55833;SDS011;41761;43.004;-0.066;2022-08-14T01:33:59;10.90;;;7.70;;
55833;SDS011;41761;43.004;-0.066;2022-08-14T01:36:26;9.27;;;8.05;;
55833;SDS011;41761;43.004;-0.066;2022-08-14T01:38:58;8.85;;;8.00;;
55833;SDS011;41761;43.004;-0.066;2022-08-14T01:41:25;9.00;;;8.13;;
55833;SDS011;41761;43.004;-0.066;2022-08-14T01:43:55;9.00;;;8.10;;
55833;SDS011;41761;43.004;-0.066;2022-08-14T01:46:25;9.77;;;8.32;;
55833;SDS011;41761;43.004;-0.066;2022-08-14T01:48:51;10.10;;;8.52;;
55833;SDS011;41761;43.004;-0.066;2022-08-14T01:51:18;7.80;;;7.07;;
55833;SDS011;41761;43.004;-0.066;2022-08-14T01:53:48;8.98;;;8.15;;
55833;SDS011;41761;43.004;-0.066;2022-08-14T01:56:18;8.55;;;7.75;;
55833;SDS011;41761;43.004;-0.066;2022-08-14T01:58:44;8.82;;;8.00;;
55833;SDS011;41761;43.004;-0.066;2022-08-14T02:01:17;8.23;;;7.43;;
55833;SDS011;41761;43.004;-0.066;2022-08-14T02:03:43;8.32;;;7.63;;
55833;SDS011;41761;43.004;-0.066;2022-08-14T02:06:10;8.32;;;7.53;;
55833;SDS011;41761;43.004;-0.066;2022-08-14T02:08:37;8.25;;;7.43;;
55833;SDS011;41761;43.004;-0.066;2022-08-14T02:11:05;8.20;;;7.40;;
55833;SDS011;41761;43.004;-0.066;2022-08-14T02:13:41;9.50;;;7.30;;
55833;SDS011;41761;43.004;-0.066;2022-08-14T02:16:08;8.43;;;7.57;;
55833;SDS011;41761;43.004;-0.066;2022-08-14T02:18:36;8.30;;;7.50;;
55833;SDS011;41761;43.004;-0.066;2022-08-14T02:21:03;8.02;;;7.32;;
55833;SDS011;41761;43.004;-0.066;2022-08-14T02:23:29;7.82;;;7.03;;
55833;SDS011;41761;43.004;-0.066;2022-08-14T02:25:56;7.72;;;6.93;;
55833;SDS011;41761;43.004;-0.066;2022-08-14T02:28:24;8.05;;;7.25;;
55833;SDS011;41761;43.004;-0.066;2022-08-14T02:30:50;7.53;;;6.78;;
55833;SDS011;41761;43.004;-0.066;2022-08-14T02:33:16;7.65;;;6.93;;
55833;SDS011;41761;43.004;-0.066;2022-08-14T02:35:42;7.97;;;7.28;;
55833;SDS011;41761;43.004;-0.066;2022-08-14T02:38:09;7.97;;;7.15;;
55833;SDS011;41761;43.004;-0.066;2022-08-14T02:40:35;8.18;;;7.38;;
55833;SDS011;41761;43.004;-0.066;2022-08-14T02:43:03;7.88;;;7.18;;
55833;SDS011;41761;43.004;-0.066;2022-08-14T02:45:30;7.03;;;6.43;;
55833;SDS011;41761;43.004;-0.066;2022-08-14T02:48:00;7.68;;;7.03;;
55833;SDS011;41761;43.004;-0.066;2022-08-14T02:52:56;7.72;;;7.03;;
55833;SDS011;41761;43.004;-0.066;2022-08-14T02:55:22;8.13;;;7.30;;
55833;SDS011;41761;43.004;-0.066;2022-08-14T02:57:48;7.32;;;6.70;;
55833;SDS011;41761;43.004;-0.066;2022-08-14T03:00:18;7.63;;;6.80;;
55833;SDS011;41761;43.004;-0.066;2022-08-14T03:02:46;7.82;;;7.13;;
55833;SDS011;41761;43.004;-0.066;2022-08-14T03:05:14;7.00;;;6.30;;
55833;SDS011;41761;43.004;-0.066;2022-08-14T03:07:41;8.05;;;7.25;;
55833;SDS011;41761;43.004;-0.066;2022-08-14T03:10:08;8.20;;;6.82;;
55833;SDS011;41761;43.004;-0.066;2022-08-14T03:12:35;7.60;;;6.78;;
55833;SDS011;41761;43.004;-0.066;2022-08-14T03:15:02;7.18;;;6.47;;
55833;SDS011;41761;43.004;-0.066;2022-08-14T03:17:33;7.45;;;6.75;;
55833;SDS011;41761;43.004;-0.066;2022-08-14T03:19:59;8.10;;;7.13;;
55833;SDS011;41761;43.004;-0.066;2022-08-14T03:22:25;7.20;;;6.60;;
55833;SDS011;41761;43.004;-0.066;2022-08-14T03:24:51;8.48;;;7.38;;
55833;SDS011;41761;43.004;-0.066;2022-08-14T03:27:17;7.47;;;6.75;;
55833;SDS011;41761;43.004;-0.066;2022-08-14T03:29:43;8.02;;;7.22;;
55833;SDS011;41761;43.004;-0.066;2022-08-14T03:32:09;8.30;;;7.57;;
55833;SDS011;41761;43.004;-0.066;2022-08-14T03:34:37;8.20;;;7.50;;
55833;SDS011;41761;43.004;-0.066;2022-08-14T03:37:03;7.68;;;6.85;;
55833;SDS011;41761;43.004;-0.066;2022-08-14T03:39:29;8.15;;;7.35;;
55833;SDS011;41761;43.004;-0.066;2022-08-14T03:41:55;8.95;;;7.28;;
55833;SDS011;41761;43.004;-0.066;2022-08-14T03:44:22;8.13;;;7.32;;
55833;SDS011;41761;43.004;-0.066;2022-08-14T03:46:49;8.07;;;7.30;;
55833;SDS011;41761;43.004;-0.066;2022-08-14T03:49:15;8.43;;;7.35;;
55833;SDS011;41761;43.004;-0.066;2022-08-14T03:51:44;7.47;;;6.55;;
55833;SDS011;41761;43.004;-0.066;2022-08-14T03:54:11;7.55;;;6.78;;
55833;SDS011;41761;43.004;-0.066;2022-08-14T03:56:37;7.90;;;7.20;;
55833;SDS011;41761;43.004;-0.066;2022-08-14T03:59:08;7.63;;;6.93;;
55833;SDS011;41761;43.004;-0.066;2022-08-14T04:01:36;7.47;;;6.78;;
55833;SDS011;41761;43.004;-0.066;2022-08-14T04:04:03;7.78;;;7.07;;
55833;SDS011;41761;43.004;-0.066;2022-08-14T04:06:34;7.97;;;7.18;;
55833;SDS011;41761;43.004;-0.066;2022-08-14T04:09:01;7.75;;;6.95;;
55833;SDS011;41761;43.004;-0.066;2022-08-14T04:11:28;7.82;;;6.90;;
55833;SDS011;41761;43.004;-0.066;2022-08-14T04:13:54;7.97;;;7.25;;
55833;SDS011;41761;43.004;-0.066;2022-08-14T04:16:21;7.20;;;6.50;;
55833;SDS011;41761;43.004;-0.066;2022-08-14T04:18:51;7.40;;;6.70;;
55833;SDS011;41761;43.004;-0.066;2022-08-14T04:21:17;7.10;;;6.45;;
55833;SDS011;41761;43.004;-0.066;2022-08-14T04:23:45;7.35;;;6.70;;
55833;SDS011;41761;43.004;-0.066;2022-08-14T04:26:13;7.40;;;6.70;;
55833;SDS011;41761;43.004;-0.066;2022-08-14T04:28:39;7.03;;;6.40;;
55833;SDS011;41761;43.004;-0.066;2022-08-14T04:31:06;7.43;;;6.70;;
55833;SDS011;41761;43.004;-0.066;2022-08-14T04:33:32;7.72;;;6.82;;
55833;SDS011;41761;43.004;-0.066;2022-08-14T04:35:58;7.60;;;7.00;;
55833;SDS011;41761;43.004;-0.066;2022-08-14T04:38:25;7.03;;;6.32;;
55833;SDS011;41761;43.004;-0.066;2022-08-14T04:41:10;8.35;;;7.55;;
55833;SDS011;41761;43.004;-0.066;2022-08-14T04:43:54;8.77;;;6.45;;
55833;SDS011;41761;43.004;-0.066;2022-08-14T04:46:21;8.05;;;7.25;;
55833;SDS011;41761;43.004;-0.066;2022-08-14T04:48:48;8.10;;;7.30;;
55833;SDS011;41761;43.004;-0.066;2022-08-14T04:51:16;7.70;;;7.00;;
55833;SDS011;41761;43.004;-0.066;2022-08-14T04:53:44;8.10;;;7.30;;
55833;SDS011;41761;43.004;-0.066;2022-08-14T04:56:11;7.40;;;6.70;;
55833;SDS011;41761;43.004;-0.066;2022-08-14T04:58:38;7.22;;;6.53;;
55833;SDS011;41761;43.004;-0.066;2022-08-14T05:01:05;7.20;;;6.38;;
55833;SDS011;41761;43.004;-0.066;2022-08-14T05:03:32;7.00;;;6.40;;
55833;SDS011;41761;43.004;-0.066;2022-08-14T05:06:00;7.57;;;6.88;;
55833;SDS011;41761;43.004;-0.066;2022-08-14T05:08:27;7.15;;;6.45;;
55833;SDS011;41761;43.004;-0.066;2022-08-14T05:10:54;7.72;;;7.03;;
55833;SDS011;41761;43.004;-0.066;2022-08-14T05:13:21;8.98;;;7.38;;
55833;SDS011;41761;43.004;-0.066;2022-08-14T05:15:48;7.15;;;6.18;;
55833;SDS011;41761;43.004;-0.066;2022-08-14T05:18:17;7.28;;;6.60;;
55833;SDS011;41761;43.004;-0.066;2022-08-14T05:20:45;7.47;;;6.75;;
55833;SDS011;41761;43.004;-0.066;2022-08-14T05:23:12;7.55;;;6.85;;
55833;SDS011;41761;43.004;-0.066;2022-08-14T05:25:39;7.60;;;6.90;;
55833;SDS011;41761;43.004;-0.066;2022-08-14T05:28:08;9.57;;;7.28;;
55833;SDS011;41761;43.004;-0.066;2022-08-14T05:30:35;8.52;;;7.68;;
55833;SDS011;41761;43.004;-0.066;2022-08-14T05:33:01;8.27;;;7.45;;
55833;SDS011;41761;43.004;-0.066;2022-08-14T05:35:28;7.53;;;6.72;;
55833;SDS011;41761;43.004;-0.066;2022-08-14T05:37:56;7.63;;;7.03;;
55833;SDS011;41761;43.004;-0.066;2022-08-14T05:40:23;7.95;;;7.25;;
55833;SDS011;41761;43.004;-0.066;2022-08-14T05:42:49;9.13;;;7.43;;
55833;SDS011;41761;43.004;-0.066;2022-08-14T05:45:15;7.40;;;6.72;;
55833;SDS011;41761;43.004;-0.066;2022-08-14T05:47:43;7.72;;;6.90;;
55833;SDS011;41761;43.004;-0.066;2022-08-14T05:50:10;8.00;;;7.20;;
55833;SDS011;41761;43.004;-0.066;2022-08-14T05:52:36;7.22;;;6.57;;
55833;SDS011;41761;43.004;-0.066;2022-08-14T05:55:03;8.07;;;7.30;;
55833;SDS011;41761;43.004;-0.066;2022-08-14T05:57:29;7.53;;;6.80;;
55833;SDS011;41761;43.004;-0.066;2022-08-14T05:59:55;7.00;;;6.30;;
55833;SDS011;41761;43.004;-0.066;2022-08-14T06:02:21;8.02;;;7.22;;
55833;SDS011;41761;43.004;-0.066;2022-08-14T06:04:47;7.60;;;6.55;;
55833;SDS011;41761;43.004;-0.066;2022-08-14T06:07:14;8.32;;;6.60;;
55833;SDS011;41761;43.004;-0.066;2022-08-14T06:09:40;7.85;;;7.05;;
55833;SDS011;41761;43.004;-0.066;2022-08-14T06:12:09;7.22;;;6.53;;
55833;SDS011;41761;43.004;-0.066;2022-08-14T06:14:36;8.00;;;7.25;;
55833;SDS011;41761;43.004;-0.066;2022-08-14T06:17:02;7.68;;;6.90;;
55833;SDS011;41761;43.004;-0.066;2022-08-14T06:19:28;9.32;;;7.53;;
55833;SDS011;41761;43.004;-0.066;2022-08-14T06:21:55;7.85;;;7.07;;
55833;SDS011;41761;43.004;-0.066;2022-08-14T06:24:21;7.75;;;7.00;;
55833;SDS011;41761;43.004;-0.066;2022-08-14T06:26:47;7.90;;;7.10;;
55833;SDS011;41761;43.004;-0.066;2022-08-14T06:29:13;8.00;;;7.05;;
55833;SDS011;41761;43.004;-0.066;2022-08-14T06:31:39;8.10;;;7.30;;
55833;SDS011;41761;43.004;-0.066;2022-08-14T06:34:05;8.52;;;6.90;;
55833;SDS011;41761;43.004;-0.066;2022-08-14T06:36:32;7.38;;;6.63;;
55833;SDS011;41761;43.004;-0.066;2022-08-14T06:38:59;7.80;;;7.10;;
55833;SDS011;41761;43.004;-0.066;2022-08-14T06:41:25;9.38;;;6.93;;
55833;SDS011;41761;43.004;-0.066;2022-08-14T06:43:51;7.43;;;6.45;;
55833;SDS011;41761;43.004;-0.066;2022-08-14T06:46:17;8.60;;;7.40;;
55833;SDS011;41761;43.004;-0.066;2022-08-14T06:48:43;8.27;;;7.47;;
55833;SDS011;41761;43.004;-0.066;2022-08-14T06:51:09;8.30;;;7.50;;
55833;SDS011;41761;43.004;-0.066;2022-08-14T06:53:35;7.60;;;6.90;;
55833;SDS011;41761;43.004;-0.066;2022-08-14T06:56:01;9.00;;;6.88;;
55833;SDS011;41761;43.004;-0.066;2022-08-14T06:58:28;8.60;;;6.75;;
55833;SDS011;41761;43.004;-0.066;2022-08-14T07:00:54;7.72;;;6.97;;
55833;SDS011;41761;43.004;-0.066;2022-08-14T07:03:39;8.32;;;7.53;;
55833;SDS011;41761;43.004;-0.066;2022-08-14T07:06:24;7.20;;;6.50;;
55833;SDS011;41761;43.004;-0.066;2022-08-14T07:08:50;7.20;;;6.53;;
55833;SDS011;41761;43.004;-0.066;2022-08-14T07:11:16;6.90;;;6.30;;
55833;SDS011;41761;43.004;-0.066;2022-08-14T07:13:42;7.13;;;6.43;;
55833;SDS011;41761;43.004;-0.066;2022-08-14T07:16:08;7.55;;;6.75;;
55833;SDS011;41761;43.004;-0.066;2022-08-14T07:18:37;7.65;;;6.82;;
55833;SDS011;41761;43.004;-0.066;2022-08-14T07:21:03;7.40;;;6.70;;
55833;SDS011;41761;43.004;-0.066;2022-08-14T07:23:29;6.95;;;6.25;;
55833;SDS011;41761;43.004;-0.066;2022-08-14T07:25:56;7.78;;;7.03;;
55833;SDS011;41761;43.004;-0.066;2022-08-14T07:28:32;7.30;;;6.60;;
55833;SDS011;41761;43.004;-0.066;2022-08-14T07:30:59;7.47;;;6.75;;
55833;SDS011;41761;43.004;-0.066;2022-08-14T07:33:27;8.23;;;7.43;;
55833;SDS011;41761;43.004;-0.066;2022-08-14T07:35:54;7.60;;;6.90;;
55833;SDS011;41761;43.004;-0.066;2022-08-14T07:38:23;7.25;;;6.50;;
55833;SDS011;41761;43.004;-0.066;2022-08-14T07:40:49;8.68;;;7.32;;
55833;SDS011;41761;43.004;-0.066;2022-08-14T07:43:16;9.35;;;7.50;;
55833;SDS011;41761;43.004;-0.066;2022-08-14T07:45:42;6.88;;;6.28;;
55833;SDS011;41761;43.004;-0.066;2022-08-14T07:48:08;7.30;;;6.43;;
55833;SDS011;41761;43.004;-0.066;2022-08-14T07:50:35;8.63;;;6.63;;
55833;SDS011;41761;43.004;-0.066;2022-08-14T07:53:01;7.30;;;6.57;;
55833;SDS011;41761;43.004;-0.066;2022-08-14T07:55:27;7.00;;;6.30;;
55833;SDS011;41761;43.004;-0.066;2022-08-14T07:57:53;7.93;;;7.22;;
55833;SDS011;41761;43.004;-0.066;2022-08-14T08:00:20;8.15;;;7.35;;
55833;SDS011;41761;43.004;-0.066;2022-08-14T08:02:47;7.38;;;6.78;;
55833;SDS011;41761;43.004;-0.066;2022-08-14T08:05:14;8.43;;;7.47;;
55833;SDS011;41761;43.004;-0.066;2022-08-14T08:07:41;7.03;;;6.32;;
55833;SDS011;41761;43.004;-0.066;2022-08-14T08:10:09;7.05;;;6.35;;
55833;SDS011;41761;43.004;-0.066;2022-08-14T08:12:55;7.70;;;6.90;;
55833;SDS011;41761;43.004;-0.066;2022-08-14T08:15:26;7.85;;;7.05;;
55833;SDS011;41761;43.004;-0.066;2022-08-14T08:17:52;7.72;;;7.03;;
55833;SDS011;41761;43.004;-0.066;2022-08-14T08:20:19;7.03;;;6.43;;
55833;SDS011;41761;43.004;-0.066;2022-08-14T08:22:47;7.40;;;6.70;;
55833;SDS011;41761;43.004;-0.066;2022-08-14T08:25:13;7.93;;;6.57;;
55833;SDS011;41761;43.004;-0.066;2022-08-14T08:27:39;8.65;;;7.65;;
55833;SDS011;41761;43.004;-0.066;2022-08-14T08:30:07;7.78;;;7.05;;
55833;SDS011;41761;43.004;-0.066;2022-08-14T08:32:38;8.10;;;7.10;;
55833;SDS011;41761;43.004;-0.066;2022-08-14T08:35:04;7.18;;;6.53;;
55833;SDS011;41761;43.004;-0.066;2022-08-14T08:37:33;7.93;;;7.13;;
55833;SDS011;41761;43.004;-0.066;2022-08-14T08:40:00;7.75;;;6.85;;
55833;SDS011;41761;43.004;-0.066;2022-08-14T08:42:26;7.00;;;6.40;;
55833;SDS011;41761;43.004;-0.066;2022-08-14T08:44:53;7.47;;;6.78;;
55833;SDS011;41761;43.004;-0.066;2022-08-14T08:47:19;8.90;;;7.72;;
55833;SDS011;41761;43.004;-0.066;2022-08-14T08:49:45;7.97;;;7.18;;
55833;SDS011;41761;43.004;-0.066;2022-08-14T08:52:11;7.70;;;6.40;;
55833;SDS011;41761;43.004;-0.066;2022-08-14T08:54:37;7.75;;;7.05;;
55833;SDS011;41761;43.004;-0.066;2022-08-14T08:57:10;7.97;;;7.07;;
55833;SDS011;41761;43.004;-0.066;2022-08-14T08:59:37;9.85;;;6.97;;
55833;SDS011;41761;43.004;-0.066;2022-08-14T09:02:11;8.18;;;7.47;;
55833;SDS011;41761;43.004;-0.066;2022-08-14T09:04:42;7.47;;;6.75;;
55833;SDS011;41761;43.004;-0.066;2022-08-14T09:07:09;7.35;;;6.75;;
55833;SDS011;41761;43.004;-0.066;2022-08-14T09:09:35;7.05;;;6.43;;
55833;SDS011;41761;43.004;-0.066;2022-08-14T09:12:20;8.35;;;7.18;;
55833;SDS011;41761;43.004;-0.066;2022-08-14T09:14:47;8.07;;;7.38;;
55833;SDS011;41761;43.004;-0.066;2022-08-14T09:17:17;7.85;;;7.15;;
55833;SDS011;41761;43.004;-0.066;2022-08-14T09:19:43;6.65;;;6.05;;
55833;SDS011;41761;43.004;-0.066;2022-08-14T09:22:10;7.32;;;6.63;;
55833;SDS011;41761;43.004;-0.066;2022-08-14T09:24:37;7.90;;;7.15;;
55833;SDS011;41761;43.004;-0.066;2022-08-14T09:27:04;7.22;;;6.50;;
55833;SDS011;41761;43.004;-0.066;2022-08-14T09:29:30;7.05;;;6.35;;
55833;SDS011;41761;43.004;-0.066;2022-08-14T09:31:57;7.68;;;6.97;;
55833;SDS011;41761;43.004;-0.066;2022-08-14T09:47:10;7.22;;;6.18;;
55833;SDS011;41761;43.004;-0.066;2022-08-14T09:49:37;7.85;;;6.68;;
55833;SDS011;41761;43.004;-0.066;2022-08-14T09:52:14;7.57;;;6.88;;
55833;SDS011;41761;43.004;-0.066;2022-08-14T09:54:47;7.25;;;6.55;;
55833;SDS011;41761;43.004;-0.066;2022-08-14T09:57:23;7.60;;;6.90;;
55833;SDS011;41761;43.004;-0.066;2022-08-14T09:59:50;8.27;;;7.47;;
55833;SDS011;41761;43.004;-0.066;2022-08-14T10:02:23;7.88;;;6.68;;
55833;SDS011;41761;43.004;-0.066;2022-08-14T10:10:25;7.50;;;6.80;;
55833;SDS011;41761;43.004;-0.066;2022-08-14T10:12:52;7.65;;;6.95;;
55833;SDS011;41761;43.004;-0.066;2022-08-14T10:15:21;7.43;;;6.78;;
55833;SDS011;41761;43.004;-0.066;2022-08-14T10:17:49;7.45;;;6.80;;
55833;SDS011;41761;43.004;-0.066;2022-08-14T10:20:17;6.40;;;5.80;;
55833;SDS011;41761;43.004;-0.066;2022-08-14T10:22:46;7.25;;;6.55;;
55833;SDS011;41761;43.004;-0.066;2022-08-14T10:25:14;7.72;;;6.53;;
55833;SDS011;41761;43.004;-0.066;2022-08-14T10:27:41;7.40;;;6.43;;
55833;SDS011;41761;43.004;-0.066;2022-08-14T10:30:12;6.78;;;6.18;;
55833;SDS011;41761;43.004;-0.066;2022-08-14T10:32:45;7.20;;;6.60;;
55833;SDS011;41761;43.004;-0.066;2022-08-14T10:35:13;7.85;;;7.13;;
55833;SDS011;41761;43.004;-0.066;2022-08-14T10:37:49;7.47;;;6.72;;
55833;SDS011;41761;43.004;-0.066;2022-08-14T10:40:24;7.53;;;6.72;;
55833;SDS011;41761;43.004;-0.066;2022-08-14T10:42:51;6.35;;;5.75;;
55833;SDS011;41761;43.004;-0.066;2022-08-14T10:45:21;7.75;;;6.95;;
55833;SDS011;41761;43.004;-0.066;2022-08-14T10:47:48;7.90;;;7.10;;
55833;SDS011;41761;43.004;-0.066;2022-08-14T10:50:15;7.93;;;7.13;;
55833;SDS011;41761;43.004;-0.066;2022-08-14T10:52:41;7.93;;;6.80;;
55833;SDS011;41761;43.004;-0.066;2022-08-14T10:57:54;7.90;;;7.10;;
55833;SDS011;41761;43.004;-0.066;2022-08-14T11:00:24;7.80;;;7.10;;
55833;SDS011;41761;43.004;-0.066;2022-08-14T11:02:59;7.20;;;6.50;;
55833;SDS011;41761;43.004;-0.066;2022-08-14T11:05:25;6.68;;;6.03;;
55833;SDS011;41761;43.004;-0.066;2022-08-14T11:08:05;7.10;;;6.50;;
55833;SDS011;41761;43.004;-0.066;2022-08-14T11:10:38;6.75;;;6.18;;
55833;SDS011;41761;43.004;-0.066;2022-08-14T11:13:05;6.50;;;5.90;;
55833;SDS011;41761;43.004;-0.066;2022-08-14T11:15:32;7.68;;;6.97;;
55833;SDS011;41761;43.004;-0.066;2022-08-14T11:17:59;8.07;;;6.78;;
55833;SDS011;41761;43.004;-0.066;2022-08-14T11:20:26;9.45;;;6.70;;
55833;SDS011;41761;43.004;-0.066;2022-08-14T11:22:54;6.75;;;6.15;;
55833;SDS011;41761;43.004;-0.066;2022-08-14T11:25:24;7.03;;;6.43;;
55833;SDS011;41761;43.004;-0.066;2022-08-14T11:27:52;8.00;;;7.25;;
55833;SDS011;41761;43.004;-0.066;2022-08-14T11:30:19;7.60;;;6.90;;
55833;SDS011;41761;43.004;-0.066;2022-08-14T11:32:46;7.45;;;6.72;;
55833;SDS011;41761;43.004;-0.066;2022-08-14T11:35:14;7.70;;;6.20;;
55833;SDS011;41761;43.004;-0.066;2022-08-14T11:37:54;7.88;;;7.18;;
55833;SDS011;41761;43.004;-0.066;2022-08-14T11:40:22;8.18;;;7.38;;
55833;SDS011;41761;43.004;-0.066;2022-08-14T11:42:49;7.15;;;6.55;;
55833;SDS011;41761;43.004;-0.066;2022-08-14T11:45:18;7.43;;;6.72;;
55833;SDS011;41761;43.004;-0.066;2022-08-14T11:47:44;8.63;;;6.65;;
55833;SDS011;41761;43.004;-0.066;2022-08-14T11:50:11;6.32;;;5.82;;
55833;SDS011;41761;43.004;-0.066;2022-08-14T11:52:38;7.15;;;6.13;;
55833;SDS011;41761;43.004;-0.066;2022-08-14T11:55:07;7.78;;;7.07;;
55833;SDS011;41761;43.004;-0.066;2022-08-14T11:57:33;10.57;;;6.40;;
55833;SDS011;41761;43.004;-0.066;2022-08-14T12:00:07;8.90;;;6.68;;
55833;SDS011;41761;43.004;-0.066;2022-08-14T12:02:34;6.95;;;6.35;;
55833;SDS011;41761;43.004;-0.066;2022-08-14T12:05:01;6.40;;;5.80;;
55833;SDS011;41761;43.004;-0.066;2022-08-14T12:07:27;7.80;;;6.55;;
55833;SDS011;41761;43.004;-0.066;2022-08-14T12:09:54;5.93;;;5.35;;
55833;SDS011;41761;43.004;-0.066;2022-08-14T12:12:21;6.75;;;6.15;;
55833;SDS011;41761;43.004;-0.066;2022-08-14T12:14:51;7.75;;;6.60;;
55833;SDS011;41761;43.004;-0.066;2022-08-14T12:17:20;6.70;;;5.90;;
55833;SDS011;41761;43.004;-0.066;2022-08-14T12:19:48;7.32;;;6.68;;
55833;SDS011;41761;43.004;-0.066;2022-08-14T12:22:14;7.25;;;6.55;;
55833;SDS011;41761;43.004;-0.066;2022-08-14T12:24:41;6.22;;;5.63;;
55833;SDS011;41761;43.004;-0.066;2022-08-14T12:27:08;6.93;;;6.00;;
55833;SDS011;41761;43.004;-0.066;2022-08-14T12:29:35;6.43;;;5.85;;
55833;SDS011;41761;43.004;-0.066;2022-08-14T12:32:02;9.18;;;6.20;;
55833;SDS011;41761;43.004;-0.066;2022-08-14T12:34:32;6.63;;;5.95;;
55833;SDS011;41761;43.004;-0.066;2022-08-14T12:37:03;6.30;;;5.80;;
55833;SDS011;41761;43.004;-0.066;2022-08-14T12:39:29;6.95;;;6.28;;
55833;SDS011;41761;43.004;-0.066;2022-08-14T12:41:57;6.85;;;6.30;;
55833;SDS011;41761;43.004;-0.066;2022-08-14T12:44:39;6.10;;;5.60;;
55833;SDS011;41761;43.004;-0.066;2022-08-14T12:47:10;6.65;;;6.05;;
55833;SDS011;41761;43.004;-0.066;2022-08-14T12:49:48;6.80;;;6.20;;
55833;SDS011;41761;43.004;-0.066;2022-08-14T12:52:34;7.55;;;6.75;;
55833;SDS011;41761;43.004;-0.066;2022-08-14T12:55:01;6.82;;;6.20;;
55833;SDS011;41761;43.004;-0.066;2022-08-14T12:57:41;6.72;;;6.13;;
55833;SDS011;41761;43.004;-0.066;2022-08-14T13:00:09;6.25;;;5.65;;
55833;SDS011;41761;43.004;-0.066;2022-08-14T13:02:42;5.90;;;5.47;;
55833;SDS011;41761;43.004;-0.066;2022-08-14T13:05:09;7.07;;;6.45;;
55833;SDS011;41761;43.004;-0.066;2022-08-14T13:07:37;6.15;;;5.65;;
55833;SDS011;41761;43.004;-0.066;2022-08-14T13:10:04;8.73;;;6.50;;
55833;SDS011;41761;43.004;-0.066;2022-08-14T13:12:31;8.98;;;5.75;;
55833;SDS011;41761;43.004;-0.066;2022-08-14T13:14:57;6.18;;;5.55;;
55833;SDS011;41761;43.004;-0.066;2022-08-14T13:17:25;6.80;;;6.20;;
55833;SDS011;41761;43.004;-0.066;2022-08-14T13:19:53;6.60;;;5.90;;
55833;SDS011;41761;43.004;-0.066;2022-08-14T13:22:21;6.97;;;6.10;;
55833;SDS011;41761;43.004;-0.066;2022-08-14T13:24:52;6.67;;;6.07;;
55833;SDS011;41761;43.004;-0.066;2022-08-14T13:27:22;7.10;;;6.47;;
55833;SDS011;41761;43.004;-0.066;2022-08-14T13:29:52;7.13;;;6.43;;
55833;SDS011;41761;43.004;-0.066;2022-08-14T13:32:24;5.82;;;5.32;;
55833;SDS011;41761;43.004;-0.066;2022-08-14T13:34:52;6.18;;;5.65;;
55833;SDS011;41761;43.004;-0.066;2022-08-14T13:37:19;7.55;;;5.75;;
55833;SDS011;41761;43.004;-0.066;2022-08-14T13:39:48;6.03;;;5.43;;
55833;SDS011;41761;43.004;-0.066;2022-08-14T13:42:17;6.50;;;5.57;;
55833;SDS011;41761;43.004;-0.066;2022-08-14T13:44:47;6.72;;;6.15;;
55833;SDS011;41761;43.004;-0.066;2022-08-14T13:47:24;6.43;;;5.82;;
55833;SDS011;41761;43.004;-0.066;2022-08-14T13:49:54;6.38;;;5.78;;
55833;SDS011;41761;43.004;-0.066;2022-08-14T13:52:24;6.47;;;5.93;;
55833;SDS011;41761;43.004;-0.066;2022-08-14T13:54:52;6.47;;;5.93;;
55833;SDS011;41761;43.004;-0.066;2022-08-14T13:57:18;6.53;;;5.88;;
55833;SDS011;41761;43.004;-0.066;2022-08-14T13:59:48;6.15;;;5.65;;
55833;SDS011;41761;43.004;-0.066;2022-08-14T14:02:15;5.43;;;4.93;;
55833;SDS011;41761;43.004;-0.066;2022-08-14T14:04:47;6.43;;;5.82;;
55833;SDS011;41761;43.004;-0.066;2022-08-14T14:07:14;6.07;;;5.60;;
55833;SDS011;41761;43.004;-0.066;2022-08-14T14:09:44;6.20;;;5.60;;
55833;SDS011;41761;43.004;-0.066;2022-08-14T14:12:11;6.07;;;5.57;;
55833;SDS011;41761;43.004;-0.066;2022-08-14T14:14:38;6.32;;;5.72;;
55833;SDS011;41761;43.004;-0.066;2022-08-14T14:17:09;6.95;;;6.20;;
55833;SDS011;41761;43.004;-0.066;2022-08-14T14:19:41;6.38;;;5.78;;
55833;SDS011;41761;43.004;-0.066;2022-08-14T14:22:11;7.22;;;5.95;;
55833;SDS011;41761;43.004;-0.066;2022-08-14T14:24:40;8.07;;;5.88;;
55833;SDS011;41761;43.004;-0.066;2022-08-14T14:27:06;7.00;;;6.40;;
55833;SDS011;41761;43.004;-0.066;2022-08-14T14:29:33;6.13;;;5.53;;
55833;SDS011;41761;43.004;-0.066;2022-08-14T14:32:01;5.90;;;5.13;;
55833;SDS011;41761;43.004;-0.066;2022-08-14T14:34:28;6.72;;;6.03;;
55833;SDS011;41761;43.004;-0.066;2022-08-14T14:36:57;5.97;;;5.38;;
55833;SDS011;41761;43.004;-0.066;2022-08-14T14:39:27;6.75;;;6.15;;
55833;SDS011;41761;43.004;-0.066;2022-08-14T14:41:54;6.28;;;5.68;;
55833;SDS011;41761;43.004;-0.066;2022-08-14T14:44:22;5.90;;;5.30;;
55833;SDS011;41761;43.004;-0.066;2022-08-14T14:46:48;5.88;;;5.18;;
55833;SDS011;41761;43.004;-0.066;2022-08-14T14:49:15;6.45;;;5.90;;
55833;SDS011;41761;43.004;-0.066;2022-08-14T14:51:42;6.45;;;5.72;;
55833;SDS011;41761;43.004;-0.066;2022-08-14T14:54:12;5.82;;;5.32;;
55833;SDS011;41761;43.004;-0.066;2022-08-14T14:56:39;6.45;;;5.85;;
55833;SDS011;41761;43.004;-0.066;2022-08-14T14:59:10;6.15;;;5.65;;
55833;SDS011;41761;43.004;-0.066;2022-08-14T15:01:36;6.00;;;5.50;;